Crosby, Washington
Current Conditions -  °F | °C
As of 1:55 PM on Saturday 25 Oct 2014 (Local Time) from KPWT Reporting Station
Few Clouds Few Clouds  
Wind Chill: 12°   Ceiling: Unl
Heat Index: 12°   Visibility: 10mi
Dew Point: 12°   Wind: 5mph
Humidity: 100%   Direction: 20°NNE
Pressure: 29.35"   Gusts: NA
Location:  47.5964°N, 122.62°W
Report Text: KPWT 252055Z AUTO 02004KT 10SM FEW060 FEW070 12/12 A2935 RMK AO1 P0003 60006 57041
Loading
Personal Weather Stations






























Interactive Weather Map
Tropical Storm Tracking
New forecast layout! Learn more

10-Day Weather Forecast

Advertisements
Track Severe Weather on mobile